PILOTS ONLINE: 154    ATC ONLINE: 12

CYRL

Red Lake Airport

Location

IATA YRL
City Red Lake
Country  Canada
Latitude 51° 4' 0" N
Longitude 93° 47' 35" W
Elevation 1265 ft
Type Medium Airport

Map

Weather

METAR
2014/09/16 02:00
CYRL 160200Z 23010KT 15SM FEW090 FEW240 12/04 A2994 RMK AC1CI1 LAST STFD OBS/NEXT 160900 UTC VIA CYPL SLP150
TAF
2014/09/15 20:00
TAF CYRL 151938Z 1520/1602 26012KT P6SM SCT030 
      TEMPO 1520/1523 BKN030 
      RMK NXT FCST WILL BE ISSUED AT 161045Z

Runways

08/26 5000 ft / 150 ft

Outbound flights

Callsign Flying to Pilot ATD/STD ETA Aircraft

Inbound flights

Callsign Flying from Pilot ATD ETA Aircraft